createdAt,value
2023-02-07T00:01:17.005Z,99690.63
2023-02-07T00:03:45.611Z,99703.06
2023-02-07T00:06:20.172Z,99713.59
2023-02-07T00:08:47.974Z,99702.22
2023-02-07T00:11:20.380Z,99706.63
2023-02-07T00:13:50.426Z,99708.41
2023-02-07T00:16:18.556Z,99705.81
2023-02-07T00:18:46.091Z,99709.22
2023-02-07T00:21:19.365Z,99706.59
2023-02-07T00:23:47.414Z,99718.06
2023-02-07T00:26:15.764Z,99727.75
2023-02-07T00:28:45.720Z,99722.38
2023-02-07T00:31:22.334Z,99728.56
2023-02-07T00:33:51.433Z,99724.19
2023-02-07T00:36:21.593Z,99724.19
2023-02-07T00:38:49.629Z,99726.88
2023-02-07T00:41:20.105Z,99726.88
2023-02-07T00:43:48.111Z,99738.28
2023-02-07T00:46:16.063Z,99745.28
2023-02-07T00:48:43.708Z,99744.41
2023-02-07T00:51:12.298Z,99739.09
2023-02-07T00:53:40.091Z,99739.09
2023-02-07T00:56:08.810Z,99745.28
2023-02-07T00:58:36.282Z,99735.63
2023-02-07T01:01:03.628Z,99731.22
2023-02-07T01:03:33.519Z,99733.84
2023-02-07T01:06:00.644Z,99732.06
2023-02-07T01:08:27.748Z,99725.94
2023-02-07T01:10:54.894Z,99724.16
2023-02-07T01:13:22.626Z,99725.00
2023-02-07T01:15:50.503Z,99724.13
2023-02-07T01:18:17.711Z,99730.25
2023-02-07T01:20:45.323Z,99728.41
2023-02-07T01:23:13.864Z,99730.13
2023-02-07T01:25:43.894Z,99727.59
2023-02-07T01:28:11.147Z,99723.19
2023-02-07T01:30:42.622Z,99724.09
2023-02-07T01:33:10.055Z,99727.66
2023-02-07T01:35:39.112Z,99709.25
2023-02-07T01:38:06.393Z,99722.38
2023-02-07T01:40:38.237Z,99719.75
2023-02-07T01:43:06.938Z,99709.22
2023-02-07T01:45:39.737Z,99717.13
2023-02-07T01:48:34.730Z,99719.69
2023-02-07T01:51:08.077Z,99726.78
2023-02-07T01:53:38.895Z,99712.75
2023-02-07T01:56:15.375Z,99724.19
2023-02-07T01:58:47.793Z,99717.13
2023-02-07T02:01:20.921Z,99718.00
2023-02-07T02:03:51.035Z,99718.06
2023-02-07T02:06:19.899Z,99705.81
2023-02-07T02:08:47.259Z,99704.03
2023-02-07T02:11:51.761Z,99718.94
2023-02-07T02:14:55.926Z,99718.88
2023-02-07T02:17:29.653Z,99711.00
2023-02-07T02:20:29.188Z,99718.94
2023-02-07T02:23:17.422Z,99726.84
2023-02-07T02:26:24.612Z,99730.34
2023-02-07T02:29:25.051Z,99732.03
2023-02-07T02:31:55.574Z,99730.28
2023-02-07T02:34:39.571Z,99729.38
2023-02-07T02:37:32.326Z,99725.78
2023-02-07T02:40:05.867Z,99729.38
2023-02-07T02:42:59.671Z,99720.66
2023-02-07T02:45:36.966Z,99733.78
2023-02-07T02:48:06.918Z,99732.94
2023-02-07T02:50:35.640Z,99736.50
2023-02-07T02:53:02.962Z,99740.78
2023-02-07T02:55:50.919Z,99737.16
2023-02-07T02:58:35.228Z,99735.41
2023-02-07T03:01:21.418Z,99737.28
2023-02-07T03:04:03.823Z,99747.78
2023-02-07T03:06:59.711Z,99753.91
2023-02-07T03:09:30.566Z,99754.72
2023-02-07T03:12:26.087Z,99759.13
2023-02-07T03:15:16.423Z,99758.31
2023-02-07T03:17:58.089Z,99759.22
2023-02-07T03:20:37.682Z,99753.00
2023-02-07T03:23:07.914Z,99749.53
2023-02-07T03:25:38.410Z,99749.56
2023-02-07T03:28:16.538Z,99742.53
2023-02-07T03:30:49.769Z,99746.00
2023-02-07T03:33:19.452Z,99753.03
2023-02-07T03:36:14.368Z,99749.44
2023-02-07T03:38:42.139Z,99747.72
2023-02-07T03:41:21.206Z,99743.38
2023-02-07T03:43:49.626Z,99742.47
2023-02-07T03:46:18.162Z,99748.56
2023-02-07T03:48:45.195Z,99745.09
2023-02-07T03:51:12.530Z,99749.50
2023-02-07T03:53:39.492Z,99753.13
2023-02-07T03:56:06.679Z,99748.78
2023-02-07T03:58:33.699Z,99747.00
2023-02-07T04:01:00.759Z,99754.81
2023-02-07T04:03:27.886Z,99740.78
2023-02-07T04:05:55.030Z,99746.06
2023-02-07T04:08:24.174Z,99755.75
2023-02-07T04:11:01.626Z,99747.81
2023-02-07T04:13:29.151Z,99735.47
2023-02-07T04:15:56.783Z,99733.78
2023-02-07T04:18:26.497Z,99740.78
2023-02-07T04:21:01.495Z,99741.66
2023-02-07T04:23:28.554Z,99735.50
2023-02-07T04:25:56.399Z,99740.72
2023-02-07T04:28:23.548Z,99740.88
2023-02-07T04:30:53.003Z,99744.38
2023-02-07T04:33:21.459Z,99745.28
2023-02-07T04:35:59.530Z,99747.88
2023-02-07T04:38:27.748Z,99759.25
2023-02-07T04:41:03.698Z,99742.59
2023-02-07T04:43:32.295Z,99753.09
2023-02-07T04:45:59.356Z,99747.81
2023-02-07T04:48:26.658Z,99767.94
2023-02-07T04:50:54.076Z,99767.94
2023-02-07T04:53:21.157Z,99776.75
2023-02-07T04:55:52.714Z,99779.44
2023-02-07T04:58:21.138Z,99784.75
2023-02-07T05:00:48.304Z,99789.16
2023-02-07T05:03:17.691Z,99804.03
2023-02-07T05:05:45.872Z,99792.66
2023-02-07T05:08:13.688Z,99798.81
2023-02-07T05:10:41.884Z,99804.91
2023-02-07T05:13:09.434Z,99797.91
2023-02-07T05:15:38.543Z,99804.88
2023-02-07T05:18:06.237Z,99818.00
2023-02-07T05:20:33.283Z,99812.69
2023-02-07T05:23:00.370Z,99818.00
2023-02-07T05:25:27.366Z,99825.06
2023-02-07T05:28:01.676Z,99834.72
2023-02-07T05:30:28.713Z,99831.19
2023-02-07T05:33:04.582Z,99826.81
2023-02-07T05:35:33.868Z,99828.56
2023-02-07T05:38:01.296Z,99830.28
2023-02-07T05:40:28.564Z,99849.63
2023-02-07T05:42:55.594Z,99841.75
2023-02-07T05:45:22.669Z,99850.53
2023-02-07T05:47:49.694Z,99851.38
2023-02-07T05:50:16.842Z,99854.00
2023-02-07T05:52:44.523Z,99852.28
2023-02-07T05:55:13.498Z,99859.31
2023-02-07T05:57:41.985Z,99870.75
2023-02-07T06:00:12.680Z,99875.09
2023-02-07T06:02:41.589Z,99871.59
2023-02-07T06:05:11.227Z,99876.88
2023-02-07T06:07:39.664Z,99862.81
2023-02-07T06:10:09.447Z,99867.16
2023-02-07T06:12:36.495Z,99871.47
2023-02-07T06:15:04.092Z,99873.28
2023-02-07T06:17:31.241Z,99873.25
2023-02-07T06:19:58.262Z,99874.97
2023-02-07T06:22:25.488Z,99884.66
2023-02-07T06:24:52.603Z,99882.94
2023-02-07T06:27:19.724Z,99895.28
2023-02-07T06:29:46.778Z,99892.59
2023-02-07T06:32:13.805Z,99897.84
2023-02-07T06:34:41.591Z,99896.09
2023-02-07T06:37:08.614Z,99907.53
2023-02-07T06:39:35.619Z,99906.66
2023-02-07T06:42:06.291Z,99904.84
2023-02-07T06:44:33.280Z,99908.38
2023-02-07T06:47:00.828Z,99895.91
2023-02-07T06:49:27.834Z,99905.44
2023-02-07T06:51:55.156Z,99893.97
2023-02-07T06:54:22.175Z,99903.53
2023-02-07T06:56:51.624Z,99898.00
2023-02-07T06:59:19.200Z,99899.69
2023-02-07T07:01:49.393Z,99895.16
2023-02-07T07:04:18.573Z,99905.63
2023-02-07T07:06:48.621Z,99901.00
2023-02-07T07:09:15.911Z,99905.38
2023-02-07T07:11:44.278Z,99903.50
2023-02-07T07:14:12.746Z,99907.88
2023-02-07T07:16:42.305Z,99898.28
2023-02-07T07:19:09.588Z,99898.06
2023-02-07T07:21:37.331Z,99895.63
2023-02-07T07:24:07.156Z,99909.63
2023-02-07T07:26:48.434Z,99911.38
2023-02-07T07:29:17.105Z,99912.09
2023-02-07T07:31:44.481Z,99897.84
2023-02-07T07:34:11.688Z,99905.75
2023-02-07T07:36:38.911Z,99898.09
2023-02-07T07:39:07.434Z,99891.66
2023-02-07T07:41:34.522Z,99898.47
2023-02-07T07:44:01.580Z,99894.63
2023-02-07T07:46:28.821Z,99887.19
2023-02-07T07:48:55.947Z,99887.19
2023-02-07T07:51:23.552Z,99894.69
2023-02-07T07:53:51.115Z,99897.59
2023-02-07T07:56:18.095Z,99897.25
2023-02-07T07:58:45.522Z,99897.13
2023-02-07T08:01:12.805Z,99888.50
2023-02-07T08:03:39.835Z,99894.75
2023-02-07T08:06:08.658Z,99877.25
2023-02-07T08:08:35.592Z,99872.94
2023-02-07T08:11:05.861Z,99872.81
2023-02-07T08:13:38.006Z,99884.81
2023-02-07T08:16:11.177Z,99886.31
2023-02-07T08:18:39.291Z,99882.66
2023-02-07T08:21:08.798Z,99873.66
2023-02-07T08:23:37.566Z,99873.56
2023-02-07T08:26:05.244Z,99873.28
2023-02-07T08:28:32.393Z,99865.06
2023-02-07T08:31:04.161Z,99879.97
2023-02-07T08:33:32.106Z,99886.25
2023-02-07T08:36:00.788Z,99884.28
2023-02-07T08:38:28.019Z,99883.53
2023-02-07T08:40:55.053Z,99873.09
2023-02-07T08:43:22.073Z,99885.56
2023-02-07T08:45:49.687Z,99875.63
2023-02-07T08:48:17.066Z,99881.66
2023-02-07T08:50:44.122Z,99878.91
2023-02-07T08:53:11.469Z,99880.78
2023-02-07T08:55:41.071Z,99885.06
2023-02-07T08:58:08.484Z,99887.84
2023-02-07T09:00:35.840Z,99885.59
2023-02-07T09:03:04.479Z,99873.50
2023-02-07T09:05:35.628Z,99871.25
2023-02-07T09:08:03.098Z,99876.44
2023-02-07T09:10:31.210Z,99877.41
2023-02-07T09:12:59.907Z,99883.53
2023-02-07T09:15:27.083Z,99876.78
2023-02-07T09:17:54.647Z,99862.69
2023-02-07T09:20:21.719Z,99868.06
2023-02-07T09:23:11.097Z,99861.13
2023-02-07T09:25:40.436Z,99866.84
2023-02-07T09:28:08.911Z,99861.50
2023-02-07T09:30:36.595Z,99873.16
2023-02-07T09:33:04.000Z,99863.91
2023-02-07T09:35:31.665Z,99874.50
2023-02-07T09:38:01.346Z,99872.34
2023-02-07T09:40:28.906Z,99871.44
2023-02-07T09:43:02.325Z,99878.78
2023-02-07T09:45:34.943Z,99869.81
2023-02-07T09:48:11.208Z,99866.53
2023-02-07T09:51:00.896Z,99863.38
2023-02-07T09:53:49.729Z,99855.16
2023-02-07T09:56:19.565Z,99861.41
2023-02-07T09:59:16.168Z,99843.06
2023-02-07T10:01:47.737Z,99852.91
2023-02-07T10:04:23.370Z,99855.28
2023-02-07T10:06:55.281Z,99852.88
2023-02-07T10:09:29.348Z,99844.84
2023-02-07T10:12:17.652Z,99840.72
2023-02-07T10:14:53.738Z,99822.16
2023-02-07T10:17:31.404Z,99830.69
2023-02-07T10:20:19.731Z,99813.00
2023-02-07T10:23:20.674Z,99812.91
2023-02-07T10:26:04.115Z,99793.69
2023-02-07T10:29:04.301Z,99812.72
2023-02-07T10:31:33.865Z,99811.38
2023-02-07T10:37:32.378Z,99804.25
2023-02-07T10:40:24.599Z,99805.56
2023-02-07T10:43:07.400Z,99803.16
2023-02-07T10:45:35.257Z,99797.00
2023-02-07T10:48:02.641Z,99795.56
2023-02-07T10:50:32.760Z,99789.06
2023-02-07T10:53:00.039Z,99768.38
2023-02-07T10:55:46.620Z,99764.50
2023-02-07T10:58:23.861Z,99751.47
2023-02-07T11:00:55.491Z,99773.81
2023-02-07T11:03:24.865Z,99760.88
2023-02-07T11:06:02.904Z,99753.94
2023-02-07T11:08:35.380Z,99761.63
2023-02-07T11:11:39.737Z,99759.47
2023-02-07T11:14:18.220Z,99752.34
2023-02-07T11:16:46.068Z,99733.22
2023-02-07T11:19:20.866Z,99762.47
2023-02-07T11:21:50.736Z,99760.66
2023-02-07T11:24:17.696Z,99739.31
2023-02-07T11:26:56.549Z,99737.72
2023-02-07T11:29:25.476Z,99744.84
2023-02-07T11:31:55.596Z,99725.03
2023-02-07T11:34:28.993Z,99731.16
2023-02-07T11:37:11.240Z,99728.72
2023-02-07T11:39:44.251Z,99720.47
2023-02-07T11:42:15.099Z,99710.63
2023-02-07T11:44:43.915Z,99708.72
2023-02-07T11:47:18.194Z,99705.09
2023-02-07T11:50:00.056Z,99674.13
2023-02-07T11:52:28.096Z,99683.34
2023-02-07T11:55:01.158Z,99669.47
2023-02-07T11:57:33.621Z,99666.31
2023-02-07T12:00:23.297Z,99663.88
2023-02-07T12:03:03.185Z,99668.88
2023-02-07T12:05:38.394Z,99671.91
2023-02-07T12:08:21.029Z,99671.44
2023-02-07T12:10:53.144Z,99674.75
2023-02-07T12:13:46.777Z,99689.31
2023-02-07T12:16:23.261Z,99687.69
2023-02-07T12:19:10.730Z,99674.22
2023-02-07T12:21:57.414Z,99645.75
2023-02-07T12:24:33.367Z,99666.47
2023-02-07T12:27:12.279Z,99675.19
2023-02-07T12:30:17.944Z,99697.72
2023-02-07T12:32:58.298Z,99670.38
2023-02-07T12:35:41.099Z,99682.94
2023-02-07T12:38:31.148Z,99681.53
2023-02-07T12:41:12.874Z,99679.88
2023-02-07T12:43:48.870Z,99682.75
2023-02-07T12:46:56.489Z,99682.66
2023-02-07T12:49:52.489Z,99687.47
2023-02-07T12:52:40.197Z,99683.66
2023-02-07T12:55:39.421Z,99693.78
2023-02-07T12:58:35.862Z,99688.28
2023-02-07T13:01:29.357Z,99669.09
2023-02-07T13:04:45.527Z,99670.28
2023-02-07T13:07:42.119Z,99669.78
2023-02-07T13:10:31.958Z,99692.59
2023-02-07T13:13:20.669Z,99692.06
2023-02-07T13:15:56.527Z,99698.75
2023-02-07T13:18:46.365Z,99662.69
2023-02-07T13:21:31.496Z,99672.66
2023-02-07T13:24:01.826Z,99675.34
2023-02-07T13:26:29.544Z,99686.19
2023-02-07T13:29:02.617Z,99672.88
2023-02-07T13:31:45.648Z,99673.41
2023-02-07T13:34:18.484Z,99681.91
2023-02-07T13:36:53.450Z,99685.97
2023-02-07T13:39:48.736Z,99674.25
2023-02-07T13:42:54.676Z,99689.22
2023-02-07T13:45:37.657Z,99676.19
2023-02-07T13:48:26.642Z,99673.22
2023-02-07T13:51:18.154Z,99672.56
2023-02-07T13:54:08.539Z,99677.38
2023-02-07T13:56:55.106Z,99676.97
2023-02-07T13:59:41.338Z,99658.91
2023-02-07T14:02:22.929Z,99669.25
2023-02-07T14:04:56.142Z,99668.00
2023-02-07T14:07:34.179Z,99659.34
2023-02-07T14:10:02.427Z,99654.59
2023-02-07T14:12:34.622Z,99672.16
2023-02-07T14:15:34.988Z,99656.41
2023-02-07T14:18:05.998Z,99656.66
2023-02-07T14:20:43.418Z,99654.59
2023-02-07T14:23:19.979Z,99654.41
2023-02-07T14:25:47.556Z,99653.88
2023-02-07T14:28:33.945Z,99661.44
2023-02-07T14:31:11.684Z,99658.72
2023-02-07T14:33:39.455Z,99666.94
2023-02-07T14:36:19.845Z,99657.72
2023-02-07T14:39:10.684Z,99652.84
2023-02-07T14:41:41.428Z,99648.34
2023-02-07T14:44:32.897Z,99651.03
2023-02-07T14:47:02.484Z,99646.16
2023-02-07T14:49:44.444Z,99654.91
2023-02-07T14:52:33.336Z,99660.34
2023-02-07T14:55:40.113Z,99644.56
2023-02-07T14:58:34.051Z,99638.66
2023-02-07T15:01:01.096Z,99635.47
2023-02-07T15:03:33.959Z,99639.06
2023-02-07T15:06:04.682Z,99631.19
2023-02-07T15:08:35.034Z,99646.66
2023-02-07T15:11:11.913Z,99639.72
2023-02-07T15:13:48.134Z,99636.41
2023-02-07T15:16:15.437Z,99656.13
2023-02-07T15:18:55.200Z,99642.59
2023-02-07T15:21:39.550Z,99646.50
2023-02-07T15:24:16.586Z,99643.06
2023-02-07T15:26:50.021Z,99646.25
2023-02-07T15:29:26.486Z,99655.13
2023-02-07T15:31:54.382Z,99663.59
2023-02-07T15:34:24.928Z,99667.13
2023-02-07T15:36:53.816Z,99665.53
2023-02-07T15:39:24.260Z,99673.09
2023-02-07T15:41:56.733Z,99677.16
2023-02-07T15:44:29.519Z,99675.38
2023-02-07T15:47:02.932Z,99688.72
2023-02-07T15:49:42.322Z,99686.00
2023-02-07T15:52:33.006Z,99693.66
2023-02-07T15:55:06.128Z,99686.66
2023-02-07T15:57:41.905Z,99703.84
2023-02-07T16:00:14.578Z,99706.41
2023-02-07T16:02:56.224Z,99713.72
2023-02-07T16:05:32.359Z,99715.66
2023-02-07T16:08:01.821Z,99724.66
2023-02-07T16:10:44.448Z,99725.75
2023-02-07T16:13:22.930Z,99730.78
2023-02-07T16:15:59.693Z,99732.69
2023-02-07T16:18:48.437Z,99737.31
2023-02-07T16:21:28.055Z,99729.47
2023-02-07T16:24:14.073Z,99728.66
2023-02-07T16:26:42.195Z,99731.31
2023-02-07T16:29:23.535Z,99735.78
2023-02-07T16:31:52.715Z,99738.44
2023-02-07T16:34:21.215Z,99748.22
2023-02-07T16:36:50.992Z,99744.41
2023-02-07T16:39:19.046Z,99755.75
2023-02-07T16:41:55.124Z,99760.28
2023-02-07T16:44:26.501Z,99763.00
2023-02-07T16:46:53.737Z,99763.09
2023-02-07T16:49:22.871Z,99768.28
2023-02-07T16:51:50.410Z,99777.09
2023-02-07T16:54:19.945Z,99772.00
2023-02-07T16:56:50.859Z,99777.09
2023-02-07T16:59:23.508Z,99786.94
2023-02-07T17:01:53.268Z,99779.13
2023-02-07T17:04:20.878Z,99793.06
2023-02-07T17:06:49.261Z,99794.09
2023-02-07T17:09:19.261Z,99795.84
2023-02-07T17:11:47.761Z,99805.72
2023-02-07T17:14:15.134Z,99808.50
2023-02-07T17:16:42.325Z,99819.97
2023-02-07T17:19:18.866Z,99825.19
2023-02-07T17:21:47.479Z,99819.06
2023-02-07T17:24:14.479Z,99820.84
2023-02-07T17:26:46.431Z,99830.56
2023-02-07T17:29:15.278Z,99833.22
2023-02-07T17:31:42.900Z,99835.91
2023-02-07T17:34:10.357Z,99835.03
2023-02-07T17:36:40.293Z,99832.41
2023-02-07T17:39:10.776Z,99840.28
2023-02-07T17:41:38.783Z,99842.91
2023-02-07T17:44:06.131Z,99853.56
2023-02-07T17:46:33.687Z,99854.47
2023-02-07T17:49:01.389Z,99856.19
2023-02-07T17:51:29.439Z,99863.19
2023-02-07T17:53:57.353Z,99853.47
2023-02-07T17:56:30.458Z,99866.75
2023-02-07T17:59:03.092Z,99866.84
2023-02-07T18:01:34.335Z,99884.53
2023-02-07T18:04:02.713Z,99883.63
2023-02-07T18:06:30.934Z,99882.78
2023-02-07T18:09:01.225Z,99881.03
2023-02-07T18:11:28.396Z,99886.38
2023-02-07T18:13:57.408Z,99899.63
2023-02-07T18:16:26.455Z,99890.91
2023-02-07T18:18:55.737Z,99889.16
2023-02-07T18:21:23.875Z,99897.91
2023-02-07T18:23:53.608Z,99897.00
2023-02-07T18:26:21.513Z,99899.69
2023-02-07T18:28:49.125Z,99883.91
2023-02-07T18:31:22.789Z,99895.34
2023-02-07T18:33:51.864Z,99902.34
2023-02-07T18:36:21.482Z,99901.47
2023-02-07T18:38:49.208Z,99911.16
2023-02-07T18:41:23.631Z,99905.84
2023-02-07T18:43:51.888Z,99900.59
2023-02-07T18:46:20.712Z,99897.94
2023-02-07T18:48:51.620Z,99905.00
2023-02-07T18:51:19.737Z,99918.19
2023-02-07T18:53:47.202Z,99919.09
2023-02-07T18:56:23.852Z,99921.72
2023-02-07T18:58:56.936Z,99918.22
2023-02-07T19:01:26.505Z,99921.72
2023-02-07T19:03:55.345Z,99919.94
2023-02-07T19:06:27.176Z,99919.09
2023-02-07T19:08:54.537Z,99919.09
2023-02-07T19:11:21.510Z,99923.47
2023-02-07T19:13:48.866Z,99925.22
2023-02-07T19:16:19.200Z,99919.06
2023-02-07T19:18:47.172Z,99939.25
2023-02-07T19:21:17.866Z,99926.09
2023-02-07T19:23:44.960Z,99940.13
2023-02-07T19:26:12.118Z,99933.97
2023-02-07T19:28:39.482Z,99936.63
2023-02-07T19:31:09.220Z,99938.38
2023-02-07T19:33:36.830Z,99934.88
2023-02-07T19:36:09.937Z,99945.41
2023-02-07T19:38:40.314Z,99942.78
2023-02-07T19:41:10.192Z,99943.63
2023-02-07T19:43:37.847Z,99951.50
2023-02-07T19:46:05.284Z,99948.84
2023-02-07T19:48:37.378Z,99948.84
2023-02-07T19:51:10.530Z,99950.63
2023-02-07T19:53:37.959Z,99947.97
2023-02-07T19:56:13.606Z,99948.84
2023-02-07T19:58:43.510Z,99949.75
2023-02-07T20:01:11.588Z,99945.34
2023-02-07T20:03:39.977Z,99949.72
2023-02-07T20:06:13.262Z,99948.84
2023-02-07T20:08:41.221Z,99957.63
2023-02-07T20:11:11.004Z,99941.84
2023-02-07T20:13:44.188Z,99957.63
2023-02-07T20:16:13.971Z,99952.38
2023-02-07T20:18:43.444Z,99963.78
2023-02-07T20:21:14.208Z,99954.97
2023-02-07T20:23:47.013Z,99954.97
2023-02-07T20:26:31.466Z,99962.00
2023-02-07T20:29:03.410Z,99953.19
2023-02-07T20:31:32.301Z,99961.97
2023-02-07T20:34:03.150Z,99957.53
2023-02-07T20:36:31.445Z,99963.69
2023-02-07T20:39:00.325Z,99968.09
2023-02-07T20:41:29.537Z,99961.97
2023-02-07T20:43:58.843Z,99964.59
2023-02-07T20:46:30.081Z,99967.22
2023-02-07T20:48:59.580Z,99971.63
2023-02-07T20:51:28.312Z,99968.00
2023-02-07T20:54:00.601Z,99959.22
2023-02-07T20:56:28.720Z,99964.50
2023-02-07T20:58:58.148Z,99968.03
2023-02-07T21:01:28.382Z,99963.63
2023-02-07T21:03:59.247Z,99967.91
2023-02-07T21:06:27.357Z,99970.59
2023-02-07T21:09:00.887Z,99971.53
2023-02-07T21:11:40.407Z,99959.25
2023-02-07T21:14:10.861Z,99970.53
2023-02-07T21:16:38.162Z,99972.19
2023-02-07T21:19:05.273Z,99978.34
2023-02-07T21:21:32.494Z,99977.44
2023-02-07T21:24:02.548Z,99981.78
2023-02-07T21:26:30.037Z,99975.63
2023-02-07T21:29:01.183Z,99982.72
2023-02-07T21:31:29.527Z,99974.88
2023-02-07T21:33:57.606Z,99981.00
2023-02-07T21:36:30.554Z,99981.91
2023-02-07T21:39:00.446Z,99978.38
2023-02-07T21:41:29.650Z,99984.44
2023-02-07T21:43:58.887Z,99976.63
2023-02-07T21:46:29.110Z,99987.19
2023-02-07T21:49:01.783Z,99986.28
2023-02-07T21:51:30.891Z,99995.06
2023-02-07T21:53:58.433Z,99992.44
2023-02-07T21:56:27.691Z,99988.94
2023-02-07T21:59:05.769Z,100001.16
2023-02-07T22:01:34.238Z,99998.50
2023-02-07T22:04:03.289Z,100003.78
2023-02-07T22:06:31.431Z,99989.72
2023-02-07T22:09:00.595Z,100001.09
2023-02-07T22:11:30.264Z,99991.47
2023-02-07T22:13:57.917Z,99993.19
2023-02-07T22:16:26.825Z,99997.47
2023-02-07T22:18:55.202Z,99997.50
2023-02-07T22:21:25.242Z,100000.09
2023-02-07T22:23:53.315Z,100000.13
2023-02-07T22:26:22.106Z,99994.00
2023-02-07T22:28:49.602Z,99994.84
2023-02-07T22:31:22.396Z,99990.53
2023-02-07T22:33:50.871Z,99994.91
2023-02-07T22:36:30.150Z,99998.25
2023-02-07T22:38:59.448Z,99997.28
2023-02-07T22:41:27.425Z,100005.13
2023-02-07T22:43:54.946Z,100002.47
2023-02-07T22:46:24.628Z,100004.28
2023-02-07T22:48:52.650Z,100006.00
2023-02-07T22:51:26.576Z,99999.94
2023-02-07T22:53:58.684Z,100000.91
2023-02-07T22:56:26.499Z,99991.31
2023-02-07T22:58:54.580Z,99993.06
2023-02-07T23:01:28.986Z,99990.41
2023-02-07T23:03:56.679Z,99990.34
2023-02-07T23:06:25.699Z,99992.78
2023-02-07T23:08:54.190Z,99995.50
2023-02-07T23:11:23.977Z,99998.66
2023-02-07T23:13:53.048Z,99996.72
2023-02-07T23:16:25.878Z,99989.84
2023-02-07T23:18:58.397Z,100001.41
2023-02-07T23:21:26.689Z,99997.09
2023-02-07T23:23:54.439Z,100004.19
2023-02-07T23:26:26.287Z,99998.13
2023-02-07T23:28:53.665Z,99999.94
2023-02-07T23:31:22.728Z,99992.09
2023-02-07T23:33:50.223Z,99982.47
2023-02-07T23:36:18.036Z,99992.19
2023-02-07T23:38:46.557Z,99988.72
2023-02-07T23:41:13.669Z,99993.94
2023-02-07T23:43:43.587Z,99988.69
2023-02-07T23:46:13.330Z,99991.25
2023-02-07T23:48:42.875Z,99985.16
2023-02-07T23:51:11.458Z,99994.31
2023-02-07T23:53:38.514Z,99995.72
2023-02-07T23:56:06.574Z,99999.25
2023-02-07T23:58:33.976Z,99994.97
